createdAt,value
2023-04-18T00:00:52.583Z,7.46
2023-04-18T00:05:55.941Z,7.44
2023-04-18T00:10:59.472Z,7.41
2023-04-18T00:16:04.296Z,7.36
2023-04-18T00:21:08.779Z,7.29
2023-04-18T00:26:12.324Z,7.23
2023-04-18T00:31:17.293Z,7.19
2023-04-18T00:36:20.680Z,7.12
2023-04-18T00:41:27.517Z,7.06
2023-04-18T00:46:32.405Z,7.02
2023-04-18T00:51:36.192Z,6.97
2023-04-18T00:56:39.930Z,6.91
2023-04-18T01:01:45.353Z,6.88
2023-04-18T01:06:48.936Z,6.82
2023-04-18T01:11:52.203Z,6.79
2023-04-18T01:16:57.630Z,6.79
2023-04-18T01:22:00.888Z,6.79
2023-04-18T01:27:06.010Z,6.79
2023-04-18T01:32:09.644Z,6.79
2023-04-18T01:37:12.958Z,6.78
2023-04-18T01:42:17.582Z,6.79
2023-04-18T01:47:20.794Z,6.78
2023-04-18T01:52:24.039Z,6.86
2023-04-18T01:57:29.068Z,6.91
2023-04-18T02:02:32.538Z,6.92
2023-04-18T02:07:36.052Z,6.95
2023-04-18T02:12:40.669Z,6.93
2023-04-18T02:17:43.916Z,6.90
2023-04-18T02:22:47.953Z,6.87
2023-04-18T02:27:52.857Z,6.85
2023-04-18T02:32:58.241Z,6.84
2023-04-18T02:38:01.762Z,6.80
2023-04-18T02:43:06.645Z,6.78
2023-04-18T02:48:10.105Z,6.73
2023-04-18T02:53:13.368Z,6.71
2023-04-18T02:58:18.310Z,6.75
2023-04-18T03:03:21.811Z,6.76
2023-04-18T03:08:25.241Z,6.80
2023-04-18T03:13:29.806Z,6.82
2023-04-18T03:18:33.082Z,6.83
2023-04-18T03:23:36.481Z,6.97
2023-04-18T03:28:41.333Z,7.09
2023-04-18T03:33:45.803Z,7.19
2023-04-18T03:38:49.314Z,7.28
2023-04-18T03:43:54.094Z,7.35
2023-04-18T03:48:57.427Z,7.46
2023-04-18T03:54:00.646Z,7.59
2023-04-18T03:59:05.294Z,7.82
2023-04-18T04:04:09.427Z,8.09
2023-04-18T04:09:12.892Z,8.38
2023-04-18T04:14:17.630Z,8.68
2023-04-18T04:19:21.205Z,8.76
2023-04-18T04:24:24.601Z,8.74
2023-04-18T04:29:29.571Z,8.77
2023-04-18T04:34:34.525Z,8.80
2023-04-18T04:39:37.905Z,8.88
2023-04-18T04:44:43.102Z,9.04
2023-04-18T04:49:46.440Z,9.29
2023-04-18T04:54:49.963Z,9.32
2023-04-18T04:59:54.740Z,9.30
2023-04-18T05:04:58.039Z,9.30
2023-04-18T05:10:01.216Z,9.36
2023-04-18T05:15:07.210Z,9.54
2023-04-18T05:20:11.603Z,9.81
2023-04-18T05:25:15.110Z,9.90
2023-04-18T05:30:19.762Z,9.98
2023-04-18T05:35:23.063Z,10.07
2023-04-18T05:40:27.584Z,10.16
2023-04-18T05:45:32.745Z,10.36
2023-04-18T05:50:36.148Z,10.71
2023-04-18T05:55:41.133Z,11.23
2023-04-18T06:00:45.945Z,11.85
2023-04-18T06:05:49.349Z,12.35
2023-04-18T06:10:52.653Z,12.82
2023-04-18T06:15:57.402Z,13.19
2023-04-18T06:21:00.896Z,13.40
2023-04-18T06:26:04.256Z,13.67
2023-04-18T06:31:09.490Z,13.95
2023-04-18T06:36:12.950Z,14.25
2023-04-18T06:41:16.782Z,14.25
2023-04-18T06:46:22.116Z,14.48
2023-04-18T06:51:25.531Z,15.48
2023-04-18T06:56:29.746Z,16.68
2023-04-18T07:01:34.681Z,17.37
2023-04-18T07:06:38.664Z,17.17
2023-04-18T07:11:42.172Z,16.81
2023-04-18T07:16:47.078Z,16.44
2023-04-18T07:21:50.318Z,16.31
2023-04-18T07:26:55.167Z,16.17
2023-04-18T07:32:00.167Z,16.26
2023-04-18T07:37:03.804Z,17.33
2023-04-18T07:42:07.909Z,19.82
2023-04-18T07:47:14.042Z,22.74
2023-04-18T07:52:17.762Z,25.60
2023-04-18T07:57:21.073Z,27.64
2023-04-18T08:02:25.968Z,29.33
2023-04-18T08:07:29.381Z,31.11
2023-04-18T08:12:32.856Z,32.61
2023-04-18T08:17:39.021Z,32.46
2023-04-18T08:23:01.376Z,33.67
2023-04-18T08:28:06.054Z,35.31
2023-04-18T08:33:11.104Z,36.08
2023-04-18T08:38:14.930Z,36.84
2023-04-18T08:43:18.252Z,37.32
2023-04-18T08:48:23.201Z,37.45
2023-04-18T08:53:26.705Z,37.34
2023-04-18T08:58:32.478Z,38.67
2023-04-18T09:03:40.193Z,39.63
2023-04-18T09:08:44.779Z,40.37
2023-04-18T09:13:48.770Z,41.12
2023-04-18T09:19:14.159Z,41.94
2023-04-18T09:24:21.239Z,42.66
2023-04-18T09:29:42.503Z,43.48
2023-04-18T09:34:48.062Z,44.40
2023-04-18T09:39:51.981Z,40.84
2023-04-18T09:45:05.673Z,34.82
2023-04-18T09:50:12.294Z,30.77
2023-04-18T09:55:17.789Z,31.29
2023-04-18T10:00:26.625Z,31.97
2023-04-18T10:05:34.873Z,29.16
2023-04-18T10:10:39.085Z,26.47
2023-04-18T10:15:44.180Z,24.42
2023-04-18T10:20:49.032Z,22.94
2023-04-18T10:25:52.501Z,22.05
2023-04-18T10:30:57.839Z,20.96
2023-04-18T10:36:06.477Z,20.32
2023-04-18T10:41:31.509Z,20.16
2023-04-18T10:46:35.016Z,19.99
2023-04-18T10:51:39.729Z,19.78
2023-04-18T10:56:56.756Z,19.46
2023-04-18T11:02:06.384Z,19.21
2023-04-18T11:07:11.322Z,18.85
2023-04-18T11:12:14.784Z,18.41
2023-04-18T11:17:19.511Z,18.19
2023-04-18T11:22:24.508Z,18.01
2023-04-18T11:27:28.053Z,17.77
2023-04-18T11:32:31.567Z,17.74
2023-04-18T11:37:36.892Z,17.51
2023-04-18T11:42:42.296Z,17.32
2023-04-18T11:47:47.549Z,17.11
2023-04-18T11:52:54.216Z,17.42
2023-04-18T11:57:58.872Z,17.53
2023-04-18T12:03:04.926Z,17.61
2023-04-18T12:08:11.522Z,17.80
2023-04-18T12:13:15.332Z,17.80
2023-04-18T12:18:20.696Z,17.80
2023-04-18T12:23:35.705Z,17.87
2023-04-18T12:28:39.030Z,17.98
2023-04-18T12:33:42.326Z,18.14
2023-04-18T12:38:49.235Z,18.10
2023-04-18T12:43:52.525Z,18.17
2023-04-18T12:48:57.267Z,18.32
2023-04-18T12:54:02.306Z,18.46
2023-04-18T12:59:05.874Z,18.79
2023-04-18T13:04:12.877Z,19.12
2023-04-18T13:09:18.125Z,19.12
2023-04-18T13:14:21.537Z,18.89
2023-04-18T13:19:24.913Z,18.66
2023-04-18T13:24:29.785Z,18.58
2023-04-18T13:29:33.209Z,18.33
2023-04-18T13:34:41.709Z,18.32
2023-04-18T13:39:46.437Z,18.41
2023-04-18T13:44:50.238Z,18.40
2023-04-18T13:49:53.539Z,18.16
2023-04-18T13:54:58.357Z,17.94
2023-04-18T14:00:01.932Z,17.89
2023-04-18T14:05:08.430Z,17.92
2023-04-18T14:10:13.501Z,17.96
2023-04-18T14:15:16.988Z,17.87
2023-04-18T14:20:20.235Z,17.93
2023-04-18T14:25:24.964Z,17.94
2023-04-18T14:30:28.132Z,17.72
2023-04-18T14:35:32.217Z,17.40
2023-04-18T14:40:37.034Z,17.00
2023-04-18T14:45:40.362Z,16.54
2023-04-18T14:50:43.940Z,16.02
2023-04-18T14:55:48.644Z,15.67
2023-04-18T15:00:52.257Z,15.46
2023-04-18T15:05:55.817Z,15.21
2023-04-18T15:11:01.251Z,14.79
2023-04-18T15:16:04.920Z,14.76
2023-04-18T15:21:08.146Z,14.52
2023-04-18T15:26:12.823Z,14.31
2023-04-18T15:31:16.581Z,14.06
2023-04-18T15:36:20.188Z,13.86
2023-04-18T15:41:24.960Z,13.69
2023-04-18T15:46:28.411Z,13.46
2023-04-18T15:51:31.676Z,13.28
2023-04-18T15:56:37.393Z,13.08
2023-04-18T16:01:40.819Z,12.87
2023-04-18T16:06:44.704Z,12.67
2023-04-18T16:11:49.397Z,12.44
2023-04-18T16:16:53.836Z,12.27
2023-04-18T16:21:57.351Z,12.12
2023-04-18T16:27:02.884Z,11.98
2023-04-18T16:32:08.206Z,11.82
2023-04-18T16:37:11.488Z,11.71
2023-04-18T16:42:16.101Z,11.58
2023-04-18T16:47:20.047Z,11.46
2023-04-18T16:52:23.779Z,11.30
2023-04-18T16:57:28.521Z,11.20
2023-04-18T17:02:32.192Z,11.10
2023-04-18T17:07:35.733Z,11.00
2023-04-18T17:12:40.543Z,10.93
2023-04-18T17:17:43.931Z,10.85
2023-04-18T17:22:47.249Z,10.86
2023-04-18T17:27:51.948Z,10.82
2023-04-18T17:32:55.767Z,10.76
2023-04-18T17:37:59.206Z,10.70
2023-04-18T17:43:04.093Z,10.66
2023-04-18T17:48:09.057Z,10.67
2023-04-18T17:53:13.051Z,10.66
2023-04-18T17:58:17.861Z,10.63
2023-04-18T18:03:21.891Z,10.59
2023-04-18T18:08:25.830Z,10.57
2023-04-18T18:13:30.941Z,10.52
2023-04-18T18:18:34.378Z,10.51
2023-04-18T18:23:38.014Z,10.51
2023-04-18T18:28:42.936Z,10.46
2023-04-18T18:33:46.528Z,10.46
2023-04-18T18:38:49.876Z,10.42
2023-04-18T18:43:54.732Z,10.38
2023-04-18T18:48:58.106Z,10.32
2023-04-18T18:54:01.509Z,10.24
2023-04-18T18:59:06.226Z,10.19
2023-04-18T19:04:09.792Z,10.12
2023-04-18T19:09:13.812Z,10.06
2023-04-18T19:14:18.859Z,9.98
2023-04-18T19:19:22.166Z,9.90
2023-04-18T19:24:25.504Z,9.88
2023-04-18T19:29:32.574Z,9.79
2023-04-18T19:34:36.398Z,9.70
2023-04-18T19:39:39.670Z,9.61
2023-04-18T19:44:44.432Z,9.56
2023-04-18T19:49:47.709Z,9.49
2023-04-18T19:54:51.077Z,9.48
2023-04-18T19:59:55.978Z,9.42
2023-04-18T20:04:59.441Z,9.39
2023-04-18T20:10:04.393Z,9.33
2023-04-18T20:15:10.820Z,9.34
2023-04-18T20:20:14.640Z,9.31
2023-04-18T20:25:18.159Z,9.30
2023-04-18T20:30:24.606Z,9.30
2023-04-18T20:35:29.855Z,9.23
2023-04-18T20:40:33.468Z,9.24
2023-04-18T20:45:38.398Z,9.21
2023-04-18T20:50:44.031Z,9.17
2023-04-18T20:55:47.519Z,9.09
2023-04-18T21:00:52.295Z,9.01
2023-04-18T21:05:55.579Z,8.95
2023-04-18T21:10:58.768Z,8.90
2023-04-18T21:16:05.329Z,8.84
2023-04-18T21:21:09.044Z,8.82
2023-04-18T21:26:13.772Z,8.76
2023-04-18T21:31:19.979Z,8.75
2023-04-18T21:36:24.424Z,8.60
2023-04-18T21:41:28.054Z,8.69
2023-04-18T21:46:32.718Z,8.67
2023-04-18T21:51:36.067Z,8.65
2023-04-18T21:56:39.546Z,8.66
2023-04-18T22:01:44.692Z,8.64
2023-04-18T22:06:48.002Z,8.64
2023-04-18T22:11:51.992Z,8.64
2023-04-18T22:16:58.943Z,8.62
2023-04-18T22:22:02.351Z,8.60
2023-04-18T22:27:05.952Z,8.59
2023-04-18T22:32:10.656Z,8.59
2023-04-18T22:37:13.879Z,8.59
2023-04-18T22:42:17.146Z,8.61
2023-04-18T22:47:22.496Z,8.61
2023-04-18T22:52:26.151Z,8.63
2023-04-18T22:57:29.580Z,8.69
2023-04-18T23:02:34.480Z,8.71
2023-04-18T23:07:37.930Z,8.69
2023-04-18T23:12:41.126Z,8.68
2023-04-18T23:17:45.842Z,8.65
2023-04-18T23:22:51.704Z,8.65
2023-04-18T23:27:55.182Z,8.65
2023-04-18T23:32:59.803Z,8.64
2023-04-18T23:38:03.151Z,8.64
2023-04-18T23:43:06.374Z,8.62
2023-04-18T23:48:11.559Z,8.64
2023-04-18T23:53:14.897Z,8.60
2023-04-18T23:58:18.365Z,8.53
